Latest Weather Observations for Norah Head

IDN60901

Issued at 10:01 am EDT Thursday 9 February 2023 (issued every 10 minutes, with the page automatically refreshed every 10 minutes)

About weather observations | Map of Sydney area stations | Latest observations for Sydney area | Other Formats
Station Details ID: 061366 Name: NORAH HEAD AWS Lat: -33.28 Lon: 151.58 Height: 18.8 m
Data from the previous 72 hours. | See also: Recent months at Norah Head
Date/Time
EDT
Temp
°C
App
Temp
°C
Dew
Point
°C
Rel
Hum
%
Delta-T
°C
Wind Press
QNH
hPa
Press
MSL
hPa
Rain since
9am
mm
Dir  Spd
km/h
Gust
km/h
Spd
kts
Gust
kts
09/10:00am 23.3 22.3 19.7 80 2.3 NNE 24 30 13 16 1013.0 1012.9 0.0
09/09:30am 23.6 21.9 19.7 79 2.5 NNE 28 32 15 17 1012.8 1012.7 0.0
09/09:00am 23.7 21.7 20.0 80 2.4 NNE 30 35 16 19 1012.5 1012.4 0.0
09/08:30am 23.7 21.4 20.2 81 2.3 NNE 32 35 17 19 1012.5 1012.4 0.0
09/08:00am 23.2 20.6 20.0 82 2.1 NNE 33 39 18 21 1012.5 1012.4 0.0
09/07:30am 23.4 21.0 20.3 83 2.0 NNE 33 39 18 21 1012.3 1012.2 0.0
09/07:00am 22.8 20.3 19.8 83 1.9 NNE 32 37 17 20 1012.2 1012.1 0.0
09/06:30am 22.9 20.3 19.9 83 1.9 NNE 33 39 18 21 1012.1 1012.0 0.0
09/06:00am 22.9 20.5 19.9 83 1.9 NNE 32 37 17 20 1012.0 1011.9 0.0
09/05:30am 22.8 20.2 19.6 82 2.0 NNE 32 35 17 19 1011.9 1011.8 0.0
09/05:00am 22.9 20.1 19.5 81 2.2 NNE 33 39 18 21 1012.0 1011.9 0.0
09/04:30am 22.8 20.2 19.4 81 2.2 NNE 32 37 17 20 1012.0 1011.9 0.0
09/04:00am 22.8 20.6 19.6 82 2.0 NNE 30 33 16 18 1012.2 1012.1 0.0
09/03:30am 23.0 20.6 20.0 83 1.9 NE 32 35 17 19 1012.3 1012.2 0.0
09/03:00am 22.9 20.4 19.7 82 2.1 NE 32 37 17 20 1012.5 1012.4 0.0
09/02:30am 23.1 21.1 19.9 82 2.1 NE 30 33 16 18 1012.9 1012.8 0.0
09/02:00am 23.0 22.2 20.0 83 1.9 NE 24 30 13 16 1013.3 1013.2 0.0
09/01:30am 22.9 20.8 19.7 82 2.1 NE 30 33 16 18 1013.5 1013.4 0.0
09/01:00am 22.9 20.7 19.5 81 2.2 NE 30 35 16 19 1013.7 1013.6 0.0
09/12:30am 22.9 21.2 19.7 82 2.1 NE 28 35 15 19 1014.0 1013.9 0.0
09/12:00am 23.1 21.4 19.7 81 2.2 NE 28 33 15 18 1014.2 1014.1 0.0
 
Date/Time
EDT
Temp
°C
App
Temp
°C
Dew
Point
°C
Rel
Hum
%
Delta-T
°C
Wind Press
QNH
hPa
Press
MSL
hPa
Rain since
9am
mm
Dir  Spd
km/h
Gust
km/h
Spd
kts
Gust
kts
08/11:30pm 23.3 21.8 19.5 79 2.4 NE 26 32 14 17 1014.4 1014.3 0.0
08/11:00pm 23.0 21.3 19.0 78 2.5 ENE 26 30 14 16 1014.5 1014.4 0.0
08/10:30pm 23.2 22.0 19.2 78 2.5 ENE 24 30 13 16 1014.6 1014.5 0.0
08/10:00pm 23.6 21.6 19.1 76 2.9 ENE 28 32 15 17 1014.4 1014.3 0.0
08/09:30pm 23.7 22.2 19.4 77 2.8 ENE 26 32 14 17 1014.3 1014.2 0.0
08/09:00pm 23.6 22.1 19.5 78 2.6 E 26 32 14 17 1014.1 1014.0 0.0
08/08:30pm 23.9 22.4 19.4 76 2.9 ENE 26 32 14 17 1014.0 1013.9 0.0
08/08:00pm 23.7 22.4 19.0 75 3.0 ENE 24 30 13 16 1014.1 1014.0 0.0
08/07:30pm 23.9 22.2 19.0 74 3.1 ENE 26 32 14 17 1013.9 1013.8 0.0
08/07:00pm 24.1 22.3 18.7 72 3.4 ENE 26 30 14 16 1013.4 1013.3 0.0
08/06:30pm 24.5 22.5 18.4 69 3.9 ENE 26 32 14 17 1013.1 1013.0 0.0
08/06:00pm 24.7 23.2 18.6 69 3.9 ENE 24 28 13 15 1013.0 1012.9 0.0
08/05:30pm 25.1 23.8 19.0 69 3.9 ENE 24 28 13 15 1013.0 1012.9 0.0
08/05:00pm 25.6 25.5 19.5 69 3.9 E 19 24 10 13 1013.2 1013.1 0.0
08/04:30pm 25.5 25.1 18.9 67 4.2 ENE 19 22 10 12 1013.4 1013.3 0.0
08/04:00pm 26.8 27.0 19.4 64 4.8 ENE 17 20 9 11 1013.6 1013.5 0.0
08/03:30pm 26.7 26.9 19.3 64 4.8 ENE 17 19 9 10 1013.7 1013.6 0.0
08/03:00pm 27.1 27.4 19.7 64 4.8 ENE 17 20 9 11 1013.8 1013.7 0.0
08/02:30pm 28.0 28.8 19.8 61 5.3 ENE 15 17 8 9 1014.0 1013.9 0.0
08/02:00pm 27.9 28.4 18.3 56 6.1 ENE 13 17 7 9 1014.2 1014.1 0.0
08/01:30pm 29.9 30.4 19.3 53 6.9 NE 15 17 8 9 1014.4 1014.3 0.0
08/01:00pm 31.1 31.9 20.7 54 6.9 NE 17 20 9 11 1014.7 1014.6 0.0
08/12:30pm 31.0 31.5 20.0 52 7.3 NE 17 19 9 10 1014.9 1014.8 0.0
08/12:00pm 30.9 31.6 20.5 54 6.9 NE 17 19 9 10 1015.0 1014.9 0.0
08/11:30am 30.5 31.7 20.7 55 6.5 NE 15 19 8 10 1015.2 1015.1 0.0
08/11:00am 29.7 30.6 20.0 56 6.4 NE 15 19 8 10 1015.2 1015.1 0.0
08/10:30am 29.2 29.7 20.1 58 6.0 NNE 17 19 9 10 1015.4 1015.3 0.0
08/10:00am 28.1 29.2 20.4 63 5.1 NNE 15 17 8 9 1015.4 1015.3 0.0
08/09:30am 26.6 26.9 19.7 66 4.5 NNE 17 22 9 12 1015.4 1015.3 0.0
08/09:00am 24.3 24.2 18.7 71 3.5 NNE 17 19 9 10 1015.5 1015.4 0.0
08/08:30am 24.8 25.1 19.6 73 3.3 NNE 17 19 9 10 1015.4 1015.3 0.0
08/08:00am 24.3 24.3 19.8 76 2.9 NNE 19 22 10 12 1015.2 1015.1 0.0
08/07:30am 23.2 23.3 19.2 78 2.5 NE 17 20 9 11 1015.0 1014.9 0.0
08/07:00am 22.8 23.0 19.4 81 2.2 NE 17 19 9 10 1014.7 1014.6 0.0
08/06:30am 22.1 22.1 18.9 82 2.0 NE 17 19 9 10 1014.5 1014.4 0.0
08/06:00am 22.3 21.7 18.9 81 2.1 NE 20 22 11 12 1014.3 1014.2 0.0
08/05:30am 22.3 21.9 18.9 81 2.1 NE 19 22 10 12 1014.0 1013.9 0.0
08/05:00am 22.4 21.4 18.8 80 2.3 NE 22 26 12 14 1013.9 1013.8 0.0
08/04:30am 22.6 22.1 19.2 81 2.2 NNE 20 24 11 13 1013.9 1013.8 0.0
08/04:00am 22.4 22.0 19.0 81 2.2 NE 19 22 10 12 1014.1 1014.0 0.0
08/03:30am 22.7 23.0 19.5 82 2.0 NNE 17 20 9 11 1014.2 1014.1 0.0
08/03:00am 22.6 22.1 19.2 81 2.2 NE 20 24 11 13 1014.2 1014.1 0.0
08/02:30am 22.7 22.3 19.3 81 2.2 NE 20 24 11 13 1014.3 1014.2 0.0
08/02:00am 22.6 22.1 19.0 80 2.3 NE 20 24 11 13 1014.5 1014.4 0.0
08/01:30am 22.8 22.3 19.0 79 2.4 NNE 20 24 11 13 1014.7 1014.6 0.0
08/01:00am 22.8 21.5 19.0 79 2.4 NE 24 26 13 14 1014.9 1014.8 0.0
08/12:30am 22.6 21.2 18.8 79 2.4 NE 24 28 13 15 1015.1 1015.0 0.0
08/12:00am 22.6 21.3 19.0 80 2.3 NE 24 28 13 15 1015.2 1015.1 0.0
 
Date/Time
EDT
Temp
°C
App
Temp
°C
Dew
Point
°C
Rel
Hum
%
Delta-T
°C
Wind Press
QNH
hPa
Press
MSL
hPa
Rain since
9am
mm
Dir  Spd
km/h
Gust
km/h
Spd
kts
Gust
kts
07/11:30pm 22.8 22.0 19.2 80 2.3 NE 22 28 12 15 1015.3 1015.2 0.0
07/11:00pm 22.9 21.3 19.3 80 2.3 NE 26 30 14 16 1015.2 1015.1 0.0
07/10:30pm 22.8 21.9 19.0 79 2.4 NE 22 26 12 14 1015.6 1015.5 0.0
07/10:00pm 22.7 22.0 18.7 78 2.5 NE 20 24 11 13 1015.6 1015.5 0.0
07/09:30pm 22.9 22.3 18.9 78 2.5 ENE 20 24 11 13 1015.6 1015.5 0.0
07/09:00pm 23.0 21.8 18.5 76 2.8 ENE 22 26 12 14 1015.5 1015.4 0.0
07/08:30pm 23.5 22.5 18.8 75 3.0 ENE 22 26 12 14 1015.2 1015.1 0.0
07/08:00pm 23.6 22.5 18.7 74 3.1 ENE 22 26 12 14 1015.0 1014.9 0.0
07/07:30pm 23.9 22.6 19.0 74 3.1 ENE 24 28 13 15 1014.5 1014.4 0.0
07/07:00pm 24.1 23.3 19.2 74 3.1 ENE 22 26 12 14 1014.2 1014.1 0.0
07/06:30pm 24.3 22.9 18.9 72 3.4 ENE 24 28 13 15 1013.9 1013.8 0.0
07/06:00pm 24.9 23.6 19.1 70 3.7 ENE 24 30 13 16 1013.6 1013.5 0.0
07/05:30pm 26.0 24.8 20.1 70 3.8 ENE 26 32 14 17 1013.4 1013.3 0.0
07/05:00pm 25.4 24.3 19.5 70 3.8 ENE 24 28 13 15 1013.8 1013.7 0.0
07/04:30pm 25.6 24.1 19.5 69 3.9 ENE 26 30 14 16 1013.8 1013.7 0.0
07/04:00pm 26.2 25.3 19.8 68 4.2 ENE 24 28 13 15 1014.1 1014.0 0.0
07/03:30pm 27.4 26.2 19.2 61 5.3 ENE 24 28 13 15 1014.2 1014.1 0.0
07/03:00pm 27.5 26.3 20.1 64 4.8 ENE 26 28 14 15 1014.2 1014.1 0.0
07/02:30pm 27.0 26.3 20.3 66 4.4 ENE 24 28 13 15 1014.4 1014.3 0.0
07/02:00pm 27.1 27.0 20.0 65 4.6 ENE 20 24 11 13 1014.8 1014.7 0.0
07/01:30pm 27.4 27.5 20.0 64 4.8 ENE 19 22 10 12 1015.0 1014.9 0.0
07/01:00pm 30.0 30.5 20.8 57 6.1 NE 19 20 10 11 1015.2 1015.1 0.0
07/12:30pm 30.3 31.3 21.1 58 6.2 NE 17 19 9 10 1015.5 1015.4 0.0
07/12:00pm 30.2 31.5 21.6 60 5.8 NE 17 20 9 11 1015.9 1015.8 0.0
07/11:30am 30.3 32.3 23.0 65 5.0 NE 17 20 9 11 1016.0 1015.9 0.0
07/11:00am 29.2 30.9 22.4 66 4.6 NE 17 20 9 11 1016.0 1015.9 0.0
07/10:30am 29.1 30.8 23.1 70 4.1 NE 19 20 10 11 1016.2 1016.1 0.0
07/10:00am 28.0 29.2 22.5 72 3.7 NE 20 24 11 13 1016.2 1016.1 0.0
07/09:30am 27.1 28.1 22.1 74 3.4 NNE 20 24 11 13 1016.1 1016.0 0.0
07/09:00am 26.5 27.8 22.6 79 2.6 NE 20 22 11 12 1015.9 1015.8 0.0
07/08:30am 26.0 27.5 23.1 84 2.0 NNE 20 24 11 13 1016.0 1015.9 0.0
07/08:00am 25.3 27.0 23.4 89 1.3 NE 20 24 11 13 1015.7 1015.6 0.0
07/07:30am 23.5 25.1 22.8 96 0.5 NE 19 22 10 12 1015.4 1015.3 0.0
07/07:00am 23.0 24.2 22.5 97 0.3 NE 20 24 11 13 1015.2 1015.1 0.0
07/06:30am 22.6 23.8 22.1 97 0.3 NNE 19 22 10 12 1014.9 1014.8 0.0
07/06:00am 22.7 23.8 22.4 98 0.2 NNE 20 22 11 12 1014.8 1014.7 0.0
07/05:30am 22.4 23.4 22.1 98 0.2 NE 20 22 11 12 1014.7 1014.6 0.0
07/05:00am 22.4 23.6 22.1 98 0.2 NE 19 24 10 13 1014.7 1014.6 0.0
07/04:30am 22.3 23.4 22.0 98 0.2 NE 19 22 10 12 1014.5 1014.4 0.0
07/04:00am 22.3 23.4 22.0 98 0.2 NE 19 22 10 12 1014.6 1014.5 0.0
07/03:30am 22.3 23.4 22.0 98 0.2 NE 19 24 10 13 1014.6 1014.5 0.0
07/03:00am 22.5 23.7 22.2 98 0.2 ENE 19 22 10 12 1014.7 1014.6 0.0
07/02:30am 22.9 24.2 22.6 98 0.2 ENE 20 26 11 14 1015.0 1014.9 0.0
07/02:00am 23.0 24.4 22.8 99 0.1 ENE 20 24 11 13 1015.2 1015.1 0.0
07/01:30am 22.7 24.1 22.5 99 0.1 NE 19 22 10 12 1015.3 1015.2 0.0
07/01:00am 22.8 23.6 22.5 98 0.2 NE 22 26 12 14 1015.5 1015.4 0.0
07/12:30am 22.8 23.5 22.3 97 0.3 NE 22 26 12 14 1015.7 1015.6 0.0
07/12:00am 22.9 23.2 22.2 96 0.5 NE 24 30 13 16 1015.8 1015.7 0.0
 
Date/Time
EDT
Temp
°C
App
Temp
°C
Dew
Point
°C
Rel
Hum
%
Delta-T
°C
Wind Press
QNH
hPa
Press
MSL
hPa
Rain since
9am
mm
Dir  Spd
km/h
Gust
km/h
Spd
kts
Gust
kts
06/11:30pm 22.9 22.7 22.1 95 0.5 NE 26 32 14 17 1015.8 1015.7 0.0
06/11:00pm 22.9 22.3 21.9 94 0.7 NE 28 33 15 18 1015.8 1015.7 0.0
06/10:30pm 22.9 21.7 21.5 92 0.9 NE 30 37 16 20 1015.9 1015.8 0.0
06/10:00pm 22.9 22.0 21.4 91 1.0 NE 28 33 15 18 1016.0 1015.9 0.0
06/09:30pm 23.0 21.8 21.5 91 1.0 NE 30 35 16 19 1016.0 1015.9 0.0
06/09:00pm 23.1 21.9 21.5 91 1.1 NE 30 35 16 19 1015.8 1015.7 0.0
06/08:30pm 23.1 21.6 21.0 88 1.4 NE 30 35 16 19 1015.6 1015.5 0.0
06/08:00pm 23.3 21.1 20.4 84 1.9 ENE 32 39 17 21 1015.5 1015.4 0.0
06/07:30pm 23.7 21.2 19.8 79 2.5 ENE 32 37 17 20 1015.3 1015.2 0.0
06/07:00pm 24.5 22.9 20.0 76 2.9 ENE 28 33 15 18 1015.2 1015.1 0.0
06/06:30pm 25.1 22.8 20.1 74 3.2 NE 32 35 17 19 1015.0 1014.9 0.0
06/06:00pm 25.8 24.5 20.6 73 3.4 ENE 28 35 15 19 1014.8 1014.7 0.0
06/05:30pm 26.1 24.3 20.4 71 3.7 ENE 30 35 16 19 1014.9 1014.8 0.0
06/05:00pm 27.2 26.1 21.0 69 4.1 ENE 28 35 15 19 1015.1 1015.0 0.0
06/04:30pm 27.7 25.7 20.8 66 4.6 ENE 32 35 17 19 1015.0 1014.9 0.0
06/04:00pm 27.4 26.3 21.0 68 4.2 ENE 28 32 15 17 1015.1 1015.0 0.0
06/03:30pm 26.2 25.1 20.3 70 3.9 ENE 26 30 14 16 1015.6 1015.5 0.0
06/03:00pm 26.5 26.2 19.6 66 4.5 ENE 20 26 11 14 1015.9 1015.8 0.0
06/02:30pm 26.5 25.8 19.6 66 4.5 ENE 22 26 12 14 1016.1 1016.0 0.0
06/02:00pm 26.8 26.2 19.7 65 4.6 ENE 22 24 12 13 1016.4 1016.3 0.0
06/01:30pm 27.2 27.5 20.3 66 4.5 ENE 19 22 10 12 1016.7 1016.6 0.0
06/01:00pm 27.2 27.2 19.8 64 4.8 ENE 19 20 10 11 1017.0 1016.9 0.0
06/12:30pm 27.4 28.1 20.5 66 4.5 ENE 17 20 9 11 1017.2 1017.1 0.0
06/12:00pm 27.8 28.3 20.1 63 5.0 ENE 17 19 9 10 1017.6 1017.5 0.0
06/11:30am 28.9 29.3 19.8 58 6.0 ENE 17 19 9 10 1017.8 1017.7 0.0
06/11:00am 29.9 31.6 21.6 61 5.6 NE 15 19 8 10 1017.8 1017.7 0.0
06/10:30am 27.5 27.8 20.3 65 4.7 NE 19 20 10 11 1018.2 1018.1 0.0

Latest Capital City Observations: Canberra | Sydney | Melbourne | Brisbane | Adelaide | Perth | Hobart | Darwin

Other formats

Comma delimited format used in spreadsheet applications
http://www.bom.gov.au/fwo/IDN60901/IDN60901.95770.axf

JavaScript Object Notation format (JSON) in row-major order
http://www.bom.gov.au/fwo/IDN60901/IDN60901.95770.json

Data quality

Most of these data are generated automatically and are frequently updated. Quality checks on data are not normally performed. It is possible for incorrect values to appear. Refer to information at About Latest Weather Observations and please check the disclaimer before using these data.